EST,Max TemperatureF,Mean TemperatureF,Min TemperatureF,Max Dew PointF,MeanDew PointF,Min DewpointF,Max Humidity, Mean Humidity, Min Humidity, Max Sea Level PressureIn, Mean Sea Level PressureIn, Min Sea Level PressureIn, Max VisibilityMiles, Mean VisibilityMiles, Min VisibilityMiles, Max Wind SpeedMPH, Mean Wind SpeedMPH, Max Gust SpeedMPH,PrecipitationIn, CloudCover, Events, WindDirDegrees
2012-12-1,38,34,30,36,32,28,96,91,86,30.30,30.08,29.81,10,7,1,16,10,25,0.10,8,Rain-Snow,134
2012-12-2,45,40,36,44,38,34,97,94,86,30.08,29.90,29.76,10,4,0,15,7,22,0.01,8,Fog-Rain,265
2012-12-3,59,47,35,56,42,34,96,91,82,30.08,29.89,29.60,10,7,2,21,8,33,0.17,7,Rain,160
2012-12-4,55,41,27,52,32,16,95,76,56,30.10,29.87,29.63,10,9,3,25,15,36,0.00,4,Snow,268
2012-12-5,30,26,22,24,19,16,85,72,60,30.40,30.30,30.11,10,10,2,21,11,26,0.00,4,Snow,301
2012-12-6,38,33,28,32,24,20,85,72,63,30.26,30.00,29.80,10,10,5,16,11,26,0.00,6,Rain-Snow,174
2012-12-7,39,35,31,35,26,21,86,71,62,30.00,29.92,29.79,10,10,10,12,7,20,0.00,8,,322
2012-12-8,32,30,27,25,23,15,87,74,56,30.17,30.02,29.95,10,9,2,12,4,16,0.00,8,Snow,348
2012-12-9,30,26,21,26,22,17,91,80,61,30.24,30.09,29.79,10,7,1,21,9,30,0.04,8,Snow,68
2012-12-10,24,20,16,20,16,12,90,81,71,29.87,29.73,29.64,10,9,2,18,11,24,0.00,7,Snow,2
2012-12-11,31,22,14,27,19,12,93,78,64,29.93,29.88,29.84,10,9,0,23,7,32,0.01,8,Snow,158
2012-12-12,36,28,21,28,20,14,82,74,67,30.20,30.12,29.93,10,10,7,21,10,28,0.11,6,Snow,250
2012-12-13,41,38,34,32,29,27,80,69,59,30.14,30.06,29.97,10,10,10,17,11,26,0.00,3,,222
2012-12-14,33,30,28,30,24,21,87,78,72,30.24,30.18,30.05,10,10,10,14,7,20,0.00,7,,350
2012-12-15,38,35,32,36,31,27,92,85,81,30.20,29.98,29.66,10,8,4,18,11,33,0.31,8,Rain-Snow,121
2012-12-16,39,37,35,38,36,34,97,96,91,29.65,29.54,29.51,7,2,0,17,9,28,0.06,8,Fog-Rain-Snow,97
2012-12-17,39,36,32,38,33,30,97,93,88,29.65,29.61,29.53,10,9,0,15,8,21,0.00,8,Fog,278
2012-12-18,36,33,30,32,31,29,96,91,75,29.75,29.69,29.64,10,10,10,6,3,,0.00,8,,315
2012-12-19,36,32,28,31,28,25,96,86,67,30.08,29.95,29.75,10,10,10,7,4,,0.00,3,,279
2012-12-20,37,32,28,33,30,27,99,90,73,30.07,29.68,29.33,10,4,0,31,13,43,0.42,8,Snow,84
2012-12-21,28,26,23,26,23,20,94,87,79,29.89,29.60,29.33,10,7,1,26,19,43,0.03,8,Snow,349
2012-12-22,29,26,23,25,21,18,88,81,74,29.98,29.92,29.81,10,10,10,18,13,31,0.00,8,,291
2012-12-23,28,25,22,24,19,15,87,77,68,29.97,29.89,29.78,10,10,5,18,12,28,0.00,7,Snow,296
2012-12-24,27,24,22,23,19,17,90,79,69,30.05,29.96,29.93,10,9,1,14,7,21,0.00,8,Snow,304
2012-12-25,26,24,22,20,18,14,82,75,66,30.39,30.25,30.05,10,10,10,13,7,18,0.00,8,Snow,317
2012-12-26,24,21,18,18,14,10,78,73,68,30.37,30.24,30.12,10,10,10,15,8,24,0.00,6,,40
2012-12-27,27,20,14,17,11,8,87,70,56,30.16,30.12,30.09,10,10,10,14,9,18,0.00,2,,8
2012-12-28,19,15,11,14,13,8,91,84,75,30.12,30.07,29.99,10,10,10,7,4,,0.00,5,,12
2012-12-29,23,19,15,20,17,13,92,84,73,29.99,29.93,29.88,10,10,10,12,6,17,0.00,7,,355
2012-12-30,27,24,22,24,20,16,88,78,67,30.12,30.05,29.95,10,10,7,16,8,24,0.00,7,Snow,257
2012-12-31,32,24,17,28,18,10,87,75,57,30.00,29.86,29.77,10,10,5,22,13,29,0.00,8,Snow,270